sensor_id;sensor_type;location;lat;lon;timestamp;P1;durP1;ratioP1;P2;durP2;ratioP2
17997;SDS011;9124;48.144;17.098;2023-04-02T00:02:24;0.30;;;0.30;;
17997;SDS011;9124;48.144;17.098;2023-04-02T00:06:10;0.40;;;0.40;;
17997;SDS011;9124;48.144;17.098;2023-04-02T00:10:23;0.30;;;0.30;;
17997;SDS011;9124;48.144;17.098;2023-04-02T00:14:17;0.60;;;0.60;;
17997;SDS011;9124;48.144;17.098;2023-04-02T00:17:59;0.40;;;0.40;;
17997;SDS011;9124;48.144;17.098;2023-04-02T00:21:37;0.73;;;0.60;;
17997;SDS011;9124;48.144;17.098;2023-04-02T00:25:16;0.85;;;0.40;;
17997;SDS011;9124;48.144;17.098;2023-04-02T00:28:54;0.32;;;0.32;;
17997;SDS011;9124;48.144;17.098;2023-04-02T00:32:30;0.40;;;0.40;;
17997;SDS011;9124;48.144;17.098;2023-04-02T00:36:09;0.50;;;0.50;;
17997;SDS011;9124;48.144;17.098;2023-04-02T00:39:46;0.50;;;0.50;;
17997;SDS011;9124;48.144;17.098;2023-04-02T00:43:27;0.65;;;0.47;;
17997;SDS011;9124;48.144;17.098;2023-04-02T00:47:52;0.38;;;0.38;;
17997;SDS011;9124;48.144;17.098;2023-04-02T00:51:11;1.75;;;0.30;;
17997;SDS011;9124;48.144;17.098;2023-04-02T00:55:21;0.60;;;0.47;;
17997;SDS011;9124;48.144;17.098;2023-04-02T00:58:59;0.50;;;0.50;;
17997;SDS011;9124;48.144;17.098;2023-04-02T01:02:35;0.22;;;0.22;;
17997;SDS011;9124;48.144;17.098;2023-04-02T01:06:15;1.70;;;0.40;;
17997;SDS011;9124;48.144;17.098;2023-04-02T01:13:35;0.60;;;0.60;;
17997;SDS011;9124;48.144;17.098;2023-04-02T01:21:24;0.50;;;0.50;;
17997;SDS011;9124;48.144;17.098;2023-04-02T01:25:50;0.60;;;0.60;;
17997;SDS011;9124;48.144;17.098;2023-04-02T01:29:31;0.40;;;0.40;;
17997;SDS011;9124;48.144;17.098;2023-04-02T01:33:10;0.52;;;0.52;;
17997;SDS011;9124;48.144;17.098;2023-04-02T01:40:51;0.85;;;0.55;;
17997;SDS011;9124;48.144;17.098;2023-04-02T01:44:52;0.52;;;0.52;;
17997;SDS011;9124;48.144;17.098;2023-04-02T01:48:34;0.38;;;0.38;;
17997;SDS011;9124;48.144;17.098;2023-04-02T01:52:17;0.70;;;0.60;;
17997;SDS011;9124;48.144;17.098;2023-04-02T01:56:10;0.60;;;0.60;;
17997;SDS011;9124;48.144;17.098;2023-04-02T01:59:46;0.65;;;0.65;;
17997;SDS011;9124;48.144;17.098;2023-04-02T02:03:23;0.50;;;0.50;;
17997;SDS011;9124;48.144;17.098;2023-04-02T02:07:00;0.75;;;0.57;;
17997;SDS011;9124;48.144;17.098;2023-04-02T02:10:38;0.82;;;0.82;;
17997;SDS011;9124;48.144;17.098;2023-04-02T02:14:19;0.98;;;0.70;;
17997;SDS011;9124;48.144;17.098;2023-04-02T02:17:59;0.65;;;0.60;;
17997;SDS011;9124;48.144;17.098;2023-04-02T02:21:40;1.55;;;0.70;;
17997;SDS011;9124;48.144;17.098;2023-04-02T02:25:24;0.43;;;0.43;;
17997;SDS011;9124;48.144;17.098;2023-04-02T02:29:05;0.57;;;0.57;;
17997;SDS011;9124;48.144;17.098;2023-04-02T02:32:54;2.05;;;0.88;;
17997;SDS011;9124;48.144;17.098;2023-04-02T02:36:42;0.60;;;0.60;;
17997;SDS011;9124;48.144;17.098;2023-04-02T02:40:35;0.47;;;0.47;;
17997;SDS011;9124;48.144;17.098;2023-04-02T02:44:19;0.47;;;0.47;;
17997;SDS011;9124;48.144;17.098;2023-04-02T02:48:04;1.45;;;0.50;;
17997;SDS011;9124;48.144;17.098;2023-04-02T02:51:49;0.50;;;0.50;;
17997;SDS011;9124;48.144;17.098;2023-04-02T02:55:39;0.50;;;0.50;;
17997;SDS011;9124;48.144;17.098;2023-04-02T02:59:27;0.65;;;0.40;;
17997;SDS011;9124;48.144;17.098;2023-04-02T03:03:08;0.60;;;0.60;;
17997;SDS011;9124;48.144;17.098;2023-04-02T03:06:51;0.82;;;0.82;;
17997;SDS011;9124;48.144;17.098;2023-04-02T03:10:42;0.60;;;0.60;;
17997;SDS011;9124;48.144;17.098;2023-04-02T03:14:30;0.47;;;0.40;;
17997;SDS011;9124;48.144;17.098;2023-04-02T03:18:13;0.30;;;0.30;;
17997;SDS011;9124;48.144;17.098;2023-04-02T03:22:14;0.43;;;0.40;;
17997;SDS011;9124;48.144;17.098;2023-04-02T03:26:09;0.60;;;0.50;;
17997;SDS011;9124;48.144;17.098;2023-04-02T03:33:39;0.40;;;0.40;;
17997;SDS011;9124;48.144;17.098;2023-04-02T03:37:28;0.60;;;0.60;;
17997;SDS011;9124;48.144;17.098;2023-04-02T03:41:23;0.63;;;0.63;;
17997;SDS011;9124;48.144;17.098;2023-04-02T03:45:15;0.70;;;0.70;;
17997;SDS011;9124;48.144;17.098;2023-04-02T03:48:59;0.68;;;0.68;;
17997;SDS011;9124;48.144;17.098;2023-04-02T03:52:41;0.80;;;0.77;;
17997;SDS011;9124;48.144;17.098;2023-04-02T03:56:28;1.15;;;1.15;;
17997;SDS011;9124;48.144;17.098;2023-04-02T04:00:23;2.17;;;0.77;;
17997;SDS011;9124;48.144;17.098;2023-04-02T04:04:15;0.80;;;0.80;;
17997;SDS011;9124;48.144;17.098;2023-04-02T04:07:56;0.95;;;0.90;;
17997;SDS011;9124;48.144;17.098;2023-04-02T04:11:44;1.00;;;1.00;;
17997;SDS011;9124;48.144;17.098;2023-04-02T04:15:26;2.25;;;1.00;;
17997;SDS011;9124;48.144;17.098;2023-04-02T04:27:23;1.00;;;1.00;;
17997;SDS011;9124;48.144;17.098;2023-04-02T04:35:30;0.95;;;0.95;;
17997;SDS011;9124;48.144;17.098;2023-04-02T04:39:25;0.77;;;0.77;;
17997;SDS011;9124;48.144;17.098;2023-04-02T04:43:18;0.80;;;0.80;;
17997;SDS011;9124;48.144;17.098;2023-04-02T04:47:46;0.80;;;0.80;;
17997;SDS011;9124;48.144;17.098;2023-04-02T04:51:20;0.88;;;0.88;;
17997;SDS011;9124;48.144;17.098;2023-04-02T04:59:20;0.60;;;0.60;;
17997;SDS011;9124;48.144;17.098;2023-04-02T05:11:04;4.00;;;0.70;;
17997;SDS011;9124;48.144;17.098;2023-04-02T05:14:48;0.57;;;0.57;;
17997;SDS011;9124;48.144;17.098;2023-04-02T05:18:39;0.88;;;0.77;;
17997;SDS011;9124;48.144;17.098;2023-04-02T05:26:10;0.70;;;0.70;;
17997;SDS011;9124;48.144;17.098;2023-04-02T05:29:59;0.73;;;0.63;;
17997;SDS011;9124;48.144;17.098;2023-04-02T05:34:00;0.80;;;0.80;;
17997;SDS011;9124;48.144;17.098;2023-04-02T05:37:39;0.75;;;0.75;;
17997;SDS011;9124;48.144;17.098;2023-04-02T05:49:23;1.35;;;0.55;;
17997;SDS011;9124;48.144;17.098;2023-04-02T05:53:18;0.70;;;0.65;;
17997;SDS011;9124;48.144;17.098;2023-04-02T05:57:46;0.60;;;0.60;;
17997;SDS011;9124;48.144;17.098;2023-04-02T06:05:38;0.50;;;0.50;;
17997;SDS011;9124;48.144;17.098;2023-04-02T06:09:23;1.58;;;0.70;;
17997;SDS011;9124;48.144;17.098;2023-04-02T06:13:09;1.15;;;0.68;;
17997;SDS011;9124;48.144;17.098;2023-04-02T06:16:52;0.93;;;0.88;;
17997;SDS011;9124;48.144;17.098;2023-04-02T06:20:30;0.90;;;0.90;;
17997;SDS011;9124;48.144;17.098;2023-04-02T06:24:08;0.93;;;0.63;;
17997;SDS011;9124;48.144;17.098;2023-04-02T06:27:48;0.60;;;0.60;;
17997;SDS011;9124;48.144;17.098;2023-04-02T06:35:13;0.80;;;0.80;;
17997;SDS011;9124;48.144;17.098;2023-04-02T06:38:59;1.00;;;0.77;;
17997;SDS011;9124;48.144;17.098;2023-04-02T06:42:42;0.70;;;0.70;;
17997;SDS011;9124;48.144;17.098;2023-04-02T06:54:04;1.02;;;0.95;;
17997;SDS011;9124;48.144;17.098;2023-04-02T06:57:41;1.02;;;1.00;;
17997;SDS011;9124;48.144;17.098;2023-04-02T07:01:18;0.80;;;0.80;;
17997;SDS011;9124;48.144;17.098;2023-04-02T07:05:05;1.05;;;0.93;;
17997;SDS011;9124;48.144;17.098;2023-04-02T07:08:51;0.90;;;0.90;;
17997;SDS011;9124;48.144;17.098;2023-04-02T07:12:29;1.05;;;1.05;;
17997;SDS011;9124;48.144;17.098;2023-04-02T07:16:07;1.05;;;1.00;;
17997;SDS011;9124;48.144;17.098;2023-04-02T07:19:54;1.40;;;1.30;;
17997;SDS011;9124;48.144;17.098;2023-04-02T07:23:33;1.20;;;1.20;;
17997;SDS011;9124;48.144;17.098;2023-04-02T07:27:10;1.20;;;1.20;;
17997;SDS011;9124;48.144;17.098;2023-04-02T07:30:48;1.60;;;1.50;;
17997;SDS011;9124;48.144;17.098;2023-04-02T07:34:25;2.00;;;1.13;;
17997;SDS011;9124;48.144;17.098;2023-04-02T07:38:01;1.63;;;1.25;;
17997;SDS011;9124;48.144;17.098;2023-04-02T07:41:50;1.88;;;1.77;;
17997;SDS011;9124;48.144;17.098;2023-04-02T07:45:29;1.40;;;1.38;;
17997;SDS011;9124;48.144;17.098;2023-04-02T07:49:06;1.13;;;1.10;;
17997;SDS011;9124;48.144;17.098;2023-04-02T07:52:42;1.58;;;1.48;;
17997;SDS011;9124;48.144;17.098;2023-04-02T07:56:18;4.05;;;1.40;;
17997;SDS011;9124;48.144;17.098;2023-04-02T07:59:55;1.70;;;1.60;;
17997;SDS011;9124;48.144;17.098;2023-04-02T08:03:31;1.67;;;1.58;;
17997;SDS011;9124;48.144;17.098;2023-04-02T08:07:08;1.27;;;1.17;;
17997;SDS011;9124;48.144;17.098;2023-04-02T08:10:44;1.55;;;1.45;;
17997;SDS011;9124;48.144;17.098;2023-04-02T08:14:21;1.73;;;1.63;;
17997;SDS011;9124;48.144;17.098;2023-04-02T08:17:57;1.25;;;1.13;;
17997;SDS011;9124;48.144;17.098;2023-04-02T08:21:34;1.50;;;1.40;;
17997;SDS011;9124;48.144;17.098;2023-04-02T08:25:10;1.67;;;1.58;;
17997;SDS011;9124;48.144;17.098;2023-04-02T08:28:47;1.88;;;1.77;;
17997;SDS011;9124;48.144;17.098;2023-04-02T08:32:23;4.53;;;1.35;;
17997;SDS011;9124;48.144;17.098;2023-04-02T08:36:01;1.17;;;1.17;;
17997;SDS011;9124;48.144;17.098;2023-04-02T08:39:37;1.63;;;1.10;;
17997;SDS011;9124;48.144;17.098;2023-04-02T08:47:12;1.90;;;1.55;;
17997;SDS011;9124;48.144;17.098;2023-04-02T08:50:52;1.85;;;1.25;;
17997;SDS011;9124;48.144;17.098;2023-04-02T08:54:30;1.83;;;1.73;;
17997;SDS011;9124;48.144;17.098;2023-04-02T08:59:00;1.88;;;1.77;;
17997;SDS011;9124;48.144;17.098;2023-04-02T09:06:03;1.48;;;1.40;;
17997;SDS011;9124;48.144;17.098;2023-04-02T09:09:45;1.80;;;1.70;;
17997;SDS011;9124;48.144;17.098;2023-04-02T09:13:25;1.13;;;1.13;;
17997;SDS011;9124;48.144;17.098;2023-04-02T09:17:05;1.10;;;1.10;;
17997;SDS011;9124;48.144;17.098;2023-04-02T09:20:59;1.58;;;1.40;;
17997;SDS011;9124;48.144;17.098;2023-04-02T09:24:59;1.60;;;1.50;;
17997;SDS011;9124;48.144;17.098;2023-04-02T09:28:39;1.50;;;1.40;;
17997;SDS011;9124;48.144;17.098;2023-04-02T09:32:36;1.67;;;1.58;;
17997;SDS011;9124;48.144;17.098;2023-04-02T09:36:44;3.65;;;1.20;;
17997;SDS011;9124;48.144;17.098;2023-04-02T09:40:28;1.63;;;1.55;;
17997;SDS011;9124;48.144;17.098;2023-04-02T09:47:49;1.38;;;1.17;;
17997;SDS011;9124;48.144;17.098;2023-04-02T09:51:29;3.95;;;1.30;;
17997;SDS011;9124;48.144;17.098;2023-04-02T09:59:12;2.00;;;1.90;;
17997;SDS011;9124;48.144;17.098;2023-04-02T10:03:01;2.42;;;1.50;;
17997;SDS011;9124;48.144;17.098;2023-04-02T10:06:59;1.40;;;1.40;;
17997;SDS011;9124;48.144;17.098;2023-04-02T10:10:38;1.40;;;1.30;;
17997;SDS011;9124;48.144;17.098;2023-04-02T10:14:20;1.48;;;1.40;;
17997;SDS011;9124;48.144;17.098;2023-04-02T10:22:08;1.15;;;1.15;;
17997;SDS011;9124;48.144;17.098;2023-04-02T10:33:45;1.13;;;1.13;;
17997;SDS011;9124;48.144;17.098;2023-04-02T10:41:20;1.10;;;1.10;;
17997;SDS011;9124;48.144;17.098;2023-04-02T10:45:43;0.80;;;0.80;;
17997;SDS011;9124;48.144;17.098;2023-04-02T10:53:15;1.05;;;1.02;;
17997;SDS011;9124;48.144;17.098;2023-04-02T10:56:56;1.20;;;1.20;;
17997;SDS011;9124;48.144;17.098;2023-04-02T11:00:58;1.30;;;1.30;;
17997;SDS011;9124;48.144;17.098;2023-04-02T11:04:43;1.10;;;1.10;;
17997;SDS011;9124;48.144;17.098;2023-04-02T11:12:00;1.48;;;1.38;;
17997;SDS011;9124;48.144;17.098;2023-04-02T11:15:39;1.30;;;1.30;;
17997;SDS011;9124;48.144;17.098;2023-04-02T11:23:55;1.63;;;1.52;;
17997;SDS011;9124;48.144;17.098;2023-04-02T11:30:49;1.65;;;1.55;;
17997;SDS011;9124;48.144;17.098;2023-04-02T11:42:30;1.80;;;1.70;;
17997;SDS011;9124;48.144;17.098;2023-04-02T11:53:32;1.80;;;1.33;;
17997;SDS011;9124;48.144;17.098;2023-04-02T11:57:14;1.55;;;1.50;;
17997;SDS011;9124;48.144;17.098;2023-04-02T12:13:01;1.65;;;1.55;;
17997;SDS011;9124;48.144;17.098;2023-04-02T12:16:38;2.85;;;2.60;;
17997;SDS011;9124;48.144;17.098;2023-04-02T12:23:57;3.20;;;3.00;;
17997;SDS011;9124;48.144;17.098;2023-04-02T12:27:34;3.65;;;3.45;;
17997;SDS011;9124;48.144;17.098;2023-04-02T12:31:14;3.47;;;3.20;;
17997;SDS011;9124;48.144;17.098;2023-04-02T12:34:54;3.50;;;3.30;;
17997;SDS011;9124;48.144;17.098;2023-04-02T12:38:34;3.47;;;3.28;;
17997;SDS011;9124;48.144;17.098;2023-04-02T12:42:28;3.13;;;3.03;;
17997;SDS011;9124;48.144;17.098;2023-04-02T12:46:11;3.55;;;3.25;;
17997;SDS011;9124;48.144;17.098;2023-04-02T12:49:49;3.25;;;3.03;;
17997;SDS011;9124;48.144;17.098;2023-04-02T12:53:28;3.25;;;3.05;;
17997;SDS011;9124;48.144;17.098;2023-04-02T13:01:17;2.83;;;2.70;;
17997;SDS011;9124;48.144;17.098;2023-04-02T13:05:07;3.05;;;2.85;;
17997;SDS011;9124;48.144;17.098;2023-04-02T13:08:44;2.72;;;2.60;;
17997;SDS011;9124;48.144;17.098;2023-04-02T13:12:31;2.67;;;2.35;;
17997;SDS011;9124;48.144;17.098;2023-04-02T13:19:52;3.25;;;3.05;;
17997;SDS011;9124;48.144;17.098;2023-04-02T13:27:08;2.88;;;2.78;;
17997;SDS011;9124;48.144;17.098;2023-04-02T13:30:45;3.08;;;2.92;;
17997;SDS011;9124;48.144;17.098;2023-04-02T13:34:22;3.45;;;3.30;;
17997;SDS011;9124;48.144;17.098;2023-04-02T13:37:59;5.50;;;3.20;;
17997;SDS011;9124;48.144;17.098;2023-04-02T13:41:59;3.22;;;3.13;;
17997;SDS011;9124;48.144;17.098;2023-04-02T13:45:36;2.97;;;2.88;;
17997;SDS011;9124;48.144;17.098;2023-04-02T13:49:14;3.17;;;3.00;;
17997;SDS011;9124;48.144;17.098;2023-04-02T13:52:52;2.38;;;2.28;;
17997;SDS011;9124;48.144;17.098;2023-04-02T13:56:31;2.83;;;2.70;;
17997;SDS011;9124;48.144;17.098;2023-04-02T14:00:08;1.92;;;1.83;;
17997;SDS011;9124;48.144;17.098;2023-04-02T14:03:45;2.88;;;2.67;;
17997;SDS011;9124;48.144;17.098;2023-04-02T14:07:40;3.15;;;2.63;;
17997;SDS011;9124;48.144;17.098;2023-04-02T14:11:25;2.83;;;2.72;;
17997;SDS011;9124;48.144;17.098;2023-04-02T14:27:27;3.47;;;3.17;;
17997;SDS011;9124;48.144;17.098;2023-04-02T14:35:00;3.72;;;3.50;;
17997;SDS011;9124;48.144;17.098;2023-04-02T14:39:02;2.67;;;2.58;;
17997;SDS011;9124;48.144;17.098;2023-04-02T14:42:56;3.40;;;3.20;;
17997;SDS011;9124;48.144;17.098;2023-04-02T14:51:00;2.75;;;2.55;;
17997;SDS011;9124;48.144;17.098;2023-04-02T14:58:48;3.20;;;2.97;;
17997;SDS011;9124;48.144;17.098;2023-04-02T15:02:44;3.17;;;2.97;;
17997;SDS011;9124;48.144;17.098;2023-04-02T15:06:42;3.13;;;2.92;;
17997;SDS011;9124;48.144;17.098;2023-04-02T15:10:25;3.13;;;3.03;;
17997;SDS011;9124;48.144;17.098;2023-04-02T15:14:32;2.88;;;2.72;;
17997;SDS011;9124;48.144;17.098;2023-04-02T15:18:10;3.90;;;3.30;;
17997;SDS011;9124;48.144;17.098;2023-04-02T15:26:19;3.17;;;2.97;;
17997;SDS011;9124;48.144;17.098;2023-04-02T15:33:27;2.95;;;2.75;;
17997;SDS011;9124;48.144;17.098;2023-04-02T15:37:27;2.78;;;2.58;;
17997;SDS011;9124;48.144;17.098;2023-04-02T15:41:26;2.60;;;2.50;;
17997;SDS011;9124;48.144;17.098;2023-04-02T15:49:00;3.15;;;2.97;;
17997;SDS011;9124;48.144;17.098;2023-04-02T15:52:54;2.90;;;2.70;;
17997;SDS011;9124;48.144;17.098;2023-04-02T15:56:51;3.33;;;3.13;;
17997;SDS011;9124;48.144;17.098;2023-04-02T16:00:29;3.38;;;3.05;;
17997;SDS011;9124;48.144;17.098;2023-04-02T16:12:18;2.90;;;2.70;;
17997;SDS011;9124;48.144;17.098;2023-04-02T16:16:38;3.03;;;2.83;;
17997;SDS011;9124;48.144;17.098;2023-04-02T16:24:21;4.65;;;2.58;;
17997;SDS011;9124;48.144;17.098;2023-04-02T16:43:17;4.20;;;3.90;;
17997;SDS011;9124;48.144;17.098;2023-04-02T17:06:41;3.22;;;3.00;;
17997;SDS011;9124;48.144;17.098;2023-04-02T17:10:22;3.22;;;3.03;;
17997;SDS011;9124;48.144;17.098;2023-04-02T17:18:13;2.78;;;2.60;;
17997;SDS011;9124;48.144;17.098;2023-04-02T17:22:00;5.32;;;3.20;;
17997;SDS011;9124;48.144;17.098;2023-04-02T17:25:43;2.67;;;2.47;;
17997;SDS011;9124;48.144;17.098;2023-04-02T17:29:35;3.55;;;3.33;;
17997;SDS011;9124;48.144;17.098;2023-04-02T17:33:14;3.63;;;3.40;;
17997;SDS011;9124;48.144;17.098;2023-04-02T17:44:47;2.92;;;2.72;;
17997;SDS011;9124;48.144;17.098;2023-04-02T17:48:44;3.40;;;3.20;;
17997;SDS011;9124;48.144;17.098;2023-04-02T17:52:32;3.55;;;3.25;;
17997;SDS011;9124;48.144;17.098;2023-04-02T17:56:23;3.03;;;2.78;;
17997;SDS011;9124;48.144;17.098;2023-04-02T18:00:28;3.33;;;2.83;;
17997;SDS011;9124;48.144;17.098;2023-04-02T18:12:39;3.25;;;3.05;;
17997;SDS011;9124;48.144;17.098;2023-04-02T18:20:30;3.20;;;2.75;;
17997;SDS011;9124;48.144;17.098;2023-04-02T18:28:17;2.30;;;2.20;;
17997;SDS011;9124;48.144;17.098;2023-04-02T18:32:18;2.65;;;2.45;;
17997;SDS011;9124;48.144;17.098;2023-04-02T18:44:24;2.95;;;2.72;;
17997;SDS011;9124;48.144;17.098;2023-04-02T18:52:31;2.90;;;2.70;;
17997;SDS011;9124;48.144;17.098;2023-04-02T18:56:13;2.47;;;2.30;;
17997;SDS011;9124;48.144;17.098;2023-04-02T18:59:53;3.50;;;3.20;;
17997;SDS011;9124;48.144;17.098;2023-04-02T19:03:42;2.63;;;2.45;;
17997;SDS011;9124;48.144;17.098;2023-04-02T19:07:28;4.43;;;3.78;;
17997;SDS011;9124;48.144;17.098;2023-04-02T19:11:29;2.90;;;2.53;;
17997;SDS011;9124;48.144;17.098;2023-04-02T19:15:13;3.10;;;2.80;;
17997;SDS011;9124;48.144;17.098;2023-04-02T19:19:08;3.70;;;3.35;;
17997;SDS011;9124;48.144;17.098;2023-04-02T19:23:19;2.80;;;2.60;;
17997;SDS011;9124;48.144;17.098;2023-04-02T19:31:00;3.33;;;3.03;;
17997;SDS011;9124;48.144;17.098;2023-04-02T19:35:05;4.28;;;3.08;;
17997;SDS011;9124;48.144;17.098;2023-04-02T19:43:00;5.03;;;3.17;;
17997;SDS011;9124;48.144;17.098;2023-04-02T19:46:37;3.15;;;2.92;;
17997;SDS011;9124;48.144;17.098;2023-04-02T19:50:13;2.65;;;2.45;;
17997;SDS011;9124;48.144;17.098;2023-04-02T19:53:50;3.25;;;3.05;;
17997;SDS011;9124;48.144;17.098;2023-04-02T19:57:27;3.38;;;3.13;;
17997;SDS011;9124;48.144;17.098;2023-04-02T20:01:03;5.05;;;3.22;;
17997;SDS011;9124;48.144;17.098;2023-04-02T20:04:40;3.47;;;3.28;;
17997;SDS011;9124;48.144;17.098;2023-04-02T20:08:17;4.55;;;2.97;;
17997;SDS011;9124;48.144;17.098;2023-04-02T20:11:54;5.28;;;2.67;;
17997;SDS011;9124;48.144;17.098;2023-04-02T20:15:30;4.10;;;2.75;;
17997;SDS011;9124;48.144;17.098;2023-04-02T20:19:06;3.20;;;2.92;;
17997;SDS011;9124;48.144;17.098;2023-04-02T20:22:43;3.67;;;3.17;;
17997;SDS011;9124;48.144;17.098;2023-04-02T20:26:19;2.80;;;2.60;;
17997;SDS011;9124;48.144;17.098;2023-04-02T20:29:57;3.85;;;3.15;;
17997;SDS011;9124;48.144;17.098;2023-04-02T20:33:33;3.28;;;2.97;;
17997;SDS011;9124;48.144;17.098;2023-04-02T20:37:09;4.63;;;3.00;;
17997;SDS011;9124;48.144;17.098;2023-04-02T20:40:46;3.05;;;2.72;;
17997;SDS011;9124;48.144;17.098;2023-04-02T20:44:27;2.90;;;2.70;;
17997;SDS011;9124;48.144;17.098;2023-04-02T20:48:04;6.63;;;3.47;;
17997;SDS011;9124;48.144;17.098;2023-04-02T20:51:41;4.07;;;2.95;;
17997;SDS011;9124;48.144;17.098;2023-04-02T20:55:17;3.90;;;3.20;;
17997;SDS011;9124;48.144;17.098;2023-04-02T20:58:54;3.38;;;2.70;;
17997;SDS011;9124;48.144;17.098;2023-04-02T21:02:30;2.83;;;2.63;;
17997;SDS011;9124;48.144;17.098;2023-04-02T21:06:17;3.30;;;3.10;;
17997;SDS011;9124;48.144;17.098;2023-04-02T21:09:55;2.65;;;2.55;;
17997;SDS011;9124;48.144;17.098;2023-04-02T21:13:32;3.28;;;3.00;;
17997;SDS011;9124;48.144;17.098;2023-04-02T21:17:10;3.40;;;3.20;;
17997;SDS011;9124;48.144;17.098;2023-04-02T21:20:57;2.55;;;2.40;;
17997;SDS011;9124;48.144;17.098;2023-04-02T21:24:35;3.40;;;3.05;;
17997;SDS011;9124;48.144;17.098;2023-04-02T21:28:11;2.85;;;2.63;;
17997;SDS011;9124;48.144;17.098;2023-04-02T21:31:49;3.17;;;2.97;;
17997;SDS011;9124;48.144;17.098;2023-04-02T21:35:29;2.92;;;2.72;;
17997;SDS011;9124;48.144;17.098;2023-04-02T21:39:14;3.15;;;2.95;;
17997;SDS011;9124;48.144;17.098;2023-04-02T21:42:59;4.35;;;2.65;;
17997;SDS011;9124;48.144;17.098;2023-04-02T21:46:37;3.00;;;2.72;;
17997;SDS011;9124;48.144;17.098;2023-04-02T21:50:14;2.45;;;2.25;;
17997;SDS011;9124;48.144;17.098;2023-04-02T21:53:50;6.45;;;3.15;;
17997;SDS011;9124;48.144;17.098;2023-04-02T21:57:28;2.90;;;2.70;;
17997;SDS011;9124;48.144;17.098;2023-04-02T22:01:05;3.10;;;2.90;;
17997;SDS011;9124;48.144;17.098;2023-04-02T22:04:41;5.03;;;3.10;;
17997;SDS011;9124;48.144;17.098;2023-04-02T22:08:18;3.85;;;3.38;;
17997;SDS011;9124;48.144;17.098;2023-04-02T22:11:55;3.42;;;3.22;;
17997;SDS011;9124;48.144;17.098;2023-04-02T22:16:03;6.68;;;3.30;;
17997;SDS011;9124;48.144;17.098;2023-04-02T22:19:42;3.85;;;3.42;;
17997;SDS011;9124;48.144;17.098;2023-04-02T22:23:19;3.08;;;2.78;;
17997;SDS011;9124;48.144;17.098;2023-04-02T22:26:56;5.75;;;3.17;;
17997;SDS011;9124;48.144;17.098;2023-04-02T22:30:32;3.28;;;2.97;;
17997;SDS011;9124;48.144;17.098;2023-04-02T22:34:08;3.22;;;3.03;;
17997;SDS011;9124;48.144;17.098;2023-04-02T22:37:45;3.50;;;3.30;;
17997;SDS011;9124;48.144;17.098;2023-04-02T22:41:25;3.95;;;2.88;;
17997;SDS011;9124;48.144;17.098;2023-04-02T22:45:04;3.03;;;2.83;;
17997;SDS011;9124;48.144;17.098;2023-04-02T22:48:42;3.13;;;2.85;;
17997;SDS011;9124;48.144;17.098;2023-04-02T22:52:20;2.80;;;2.60;;
17997;SDS011;9124;48.144;17.098;2023-04-02T22:56:06;2.95;;;2.75;;
17997;SDS011;9124;48.144;17.098;2023-04-02T22:59:45;4.03;;;3.05;;
17997;SDS011;9124;48.144;17.098;2023-04-02T23:03:21;3.45;;;2.70;;
17997;SDS011;9124;48.144;17.098;2023-04-02T23:06:57;3.28;;;2.47;;
17997;SDS011;9124;48.144;17.098;2023-04-02T23:10:34;3.67;;;2.83;;
17997;SDS011;9124;48.144;17.098;2023-04-02T23:14:10;2.70;;;2.50;;
17997;SDS011;9124;48.144;17.098;2023-04-02T23:17:46;2.88;;;2.65;;
17997;SDS011;9124;48.144;17.098;2023-04-02T23:21:23;3.17;;;2.97;;
17997;SDS011;9124;48.144;17.098;2023-04-02T23:25:01;3.25;;;3.05;;
17997;SDS011;9124;48.144;17.098;2023-04-02T23:28:39;2.80;;;2.60;;
17997;SDS011;9124;48.144;17.098;2023-04-02T23:32:16;3.03;;;2.83;;
17997;SDS011;9124;48.144;17.098;2023-04-02T23:35:54;3.25;;;3.05;;
17997;SDS011;9124;48.144;17.098;2023-04-02T23:39:30;3.17;;;2.88;;
17997;SDS011;9124;48.144;17.098;2023-04-02T23:43:06;4.78;;;3.33;;
17997;SDS011;9124;48.144;17.098;2023-04-02T23:46:42;4.38;;;2.95;;
17997;SDS011;9124;48.144;17.098;2023-04-02T23:50:19;3.28;;;2.67;;
17997;SDS011;9124;48.144;17.098;2023-04-02T23:53:55;4.40;;;2.60;;
17997;SDS011;9124;48.144;17.098;2023-04-02T23:57:31;3.25;;;2.95;;
